sensor_id;sensor_type;location;lat;lon;timestamp;P1;durP1;ratioP1;P2;durP2;ratioP2
29730;SDS011;16639;51.488;0.152;2023-07-31T00:00:54;23.98;;;8.35;;
29730;SDS011;16639;51.488;0.152;2023-07-31T00:03:22;20.80;;;8.88;;
29730;SDS011;16639;51.488;0.152;2023-07-31T00:05:49;21.33;;;10.68;;
29730;SDS011;16639;51.488;0.152;2023-07-31T00:08:17;31.00;;;8.73;;
29730;SDS011;16639;51.488;0.152;2023-07-31T00:10:44;27.08;;;9.13;;
29730;SDS011;16639;51.488;0.152;2023-07-31T00:13:12;21.52;;;7.97;;
29730;SDS011;16639;51.488;0.152;2023-07-31T00:15:39;21.52;;;8.43;;
29730;SDS011;16639;51.488;0.152;2023-07-31T00:18:07;19.55;;;7.55;;
29730;SDS011;16639;51.488;0.152;2023-07-31T00:20:34;24.20;;;8.73;;
29730;SDS011;16639;51.488;0.152;2023-07-31T00:23:01;20.95;;;8.07;;
29730;SDS011;16639;51.488;0.152;2023-07-31T00:25:29;19.05;;;7.40;;
29730;SDS011;16639;51.488;0.152;2023-07-31T00:27:56;15.52;;;6.88;;
29730;SDS011;16639;51.488;0.152;2023-07-31T00:30:24;18.27;;;5.80;;
29730;SDS011;16639;51.488;0.152;2023-07-31T00:32:52;22.48;;;5.90;;
29730;SDS011;16639;51.488;0.152;2023-07-31T00:35:19;13.57;;;5.75;;
29730;SDS011;16639;51.488;0.152;2023-07-31T00:37:47;11.52;;;4.65;;
29730;SDS011;16639;51.488;0.152;2023-07-31T00:40:14;14.18;;;5.15;;
29730;SDS011;16639;51.488;0.152;2023-07-31T00:42:41;17.75;;;4.53;;
29730;SDS011;16639;51.488;0.152;2023-07-31T00:45:09;15.40;;;4.50;;
29730;SDS011;16639;51.488;0.152;2023-07-31T00:47:36;8.60;;;4.50;;
29730;SDS011;16639;51.488;0.152;2023-07-31T00:50:04;7.65;;;3.55;;
29730;SDS011;16639;51.488;0.152;2023-07-31T00:52:32;9.45;;;3.95;;
29730;SDS011;16639;51.488;0.152;2023-07-31T00:54:59;13.45;;;4.57;;
29730;SDS011;16639;51.488;0.152;2023-07-31T00:57:27;6.10;;;3.25;;
29730;SDS011;16639;51.488;0.152;2023-07-31T00:59:54;6.10;;;3.65;;
29730;SDS011;16639;51.488;0.152;2023-07-31T01:02:22;10.38;;;3.10;;
29730;SDS011;16639;51.488;0.152;2023-07-31T01:04:50;7.78;;;3.33;;
29730;SDS011;16639;51.488;0.152;2023-07-31T01:07:20;7.07;;;3.00;;
29730;SDS011;16639;51.488;0.152;2023-07-31T01:12:48;8.20;;;3.25;;
29730;SDS011;16639;51.488;0.152;2023-07-31T01:15:17;6.65;;;2.50;;
29730;SDS011;16639;51.488;0.152;2023-07-31T01:17:44;5.20;;;2.03;;
29730;SDS011;16639;51.488;0.152;2023-07-31T01:20:13;4.78;;;2.58;;
29730;SDS011;16639;51.488;0.152;2023-07-31T01:28:19;4.05;;;1.90;;
29730;SDS011;16639;51.488;0.152;2023-07-31T01:30:50;5.10;;;1.70;;
29730;SDS011;16639;51.488;0.152;2023-07-31T01:33:20;1.95;;;1.40;;
29730;SDS011;16639;51.488;0.152;2023-07-31T01:35:47;4.68;;;1.77;;
29730;SDS011;16639;51.488;0.152;2023-07-31T01:38:19;3.10;;;1.80;;
29730;SDS011;16639;51.488;0.152;2023-07-31T01:40:52;3.40;;;1.85;;
29730;SDS011;16639;51.488;0.152;2023-07-31T01:43:20;4.22;;;1.83;;
29730;SDS011;16639;51.488;0.152;2023-07-31T01:45:47;5.35;;;1.70;;
29730;SDS011;16639;51.488;0.152;2023-07-31T01:48:15;2.13;;;1.48;;
29730;SDS011;16639;51.488;0.152;2023-07-31T01:50:42;5.72;;;1.80;;
29730;SDS011;16639;51.488;0.152;2023-07-31T01:53:10;1.83;;;1.65;;
29730;SDS011;16639;51.488;0.152;2023-07-31T01:55:38;2.72;;;1.48;;
29730;SDS011;16639;51.488;0.152;2023-07-31T01:58:06;4.75;;;1.70;;
29730;SDS011;16639;51.488;0.152;2023-07-31T02:00:34;2.58;;;1.55;;
29730;SDS011;16639;51.488;0.152;2023-07-31T02:03:01;2.95;;;2.15;;
29730;SDS011;16639;51.488;0.152;2023-07-31T02:05:29;4.57;;;1.85;;
29730;SDS011;16639;51.488;0.152;2023-07-31T02:07:56;4.43;;;1.60;;
29730;SDS011;16639;51.488;0.152;2023-07-31T02:10:23;5.38;;;1.60;;
29730;SDS011;16639;51.488;0.152;2023-07-31T02:12:51;6.43;;;2.63;;
29730;SDS011;16639;51.488;0.152;2023-07-31T02:15:18;3.80;;;1.73;;
29730;SDS011;16639;51.488;0.152;2023-07-31T02:17:45;3.92;;;1.95;;
29730;SDS011;16639;51.488;0.152;2023-07-31T02:20:13;4.03;;;2.40;;
29730;SDS011;16639;51.488;0.152;2023-07-31T02:22:40;3.28;;;1.95;;
29730;SDS011;16639;51.488;0.152;2023-07-31T02:25:08;6.20;;;2.55;;
29730;SDS011;16639;51.488;0.152;2023-07-31T02:27:35;3.35;;;2.22;;
29730;SDS011;16639;51.488;0.152;2023-07-31T02:30:03;3.55;;;2.00;;
29730;SDS011;16639;51.488;0.152;2023-07-31T02:32:30;4.28;;;2.83;;
29730;SDS011;16639;51.488;0.152;2023-07-31T02:34:57;4.93;;;2.08;;
29730;SDS011;16639;51.488;0.152;2023-07-31T02:37:25;5.82;;;2.05;;
29730;SDS011;16639;51.488;0.152;2023-07-31T02:39:52;5.15;;;2.10;;
29730;SDS011;16639;51.488;0.152;2023-07-31T02:42:20;8.35;;;2.83;;
29730;SDS011;16639;51.488;0.152;2023-07-31T02:44:47;3.72;;;2.08;;
29730;SDS011;16639;51.488;0.152;2023-07-31T02:47:15;5.68;;;2.20;;
29730;SDS011;16639;51.488;0.152;2023-07-31T02:49:42;4.63;;;1.88;;
29730;SDS011;16639;51.488;0.152;2023-07-31T02:52:10;4.63;;;1.90;;
29730;SDS011;16639;51.488;0.152;2023-07-31T02:54:37;4.20;;;2.30;;
29730;SDS011;16639;51.488;0.152;2023-07-31T02:57:05;3.92;;;1.75;;
29730;SDS011;16639;51.488;0.152;2023-07-31T02:59:32;7.25;;;2.05;;
29730;SDS011;16639;51.488;0.152;2023-07-31T03:01:59;4.80;;;1.92;;
29730;SDS011;16639;51.488;0.152;2023-07-31T03:04:27;8.63;;;1.95;;
29730;SDS011;16639;51.488;0.152;2023-07-31T03:06:54;4.07;;;1.60;;
29730;SDS011;16639;51.488;0.152;2023-07-31T03:09:22;3.03;;;1.83;;
29730;SDS011;16639;51.488;0.152;2023-07-31T03:11:49;5.13;;;1.83;;
29730;SDS011;16639;51.488;0.152;2023-07-31T03:14:17;4.40;;;1.80;;
29730;SDS011;16639;51.488;0.152;2023-07-31T03:16:44;4.90;;;1.90;;
29730;SDS011;16639;51.488;0.152;2023-07-31T03:19:11;2.17;;;1.42;;
29730;SDS011;16639;51.488;0.152;2023-07-31T03:21:39;4.32;;;2.13;;
29730;SDS011;16639;51.488;0.152;2023-07-31T03:24:06;4.68;;;2.28;;
29730;SDS011;16639;51.488;0.152;2023-07-31T03:26:34;6.05;;;2.08;;
29730;SDS011;16639;51.488;0.152;2023-07-31T03:29:03;3.75;;;1.92;;
29730;SDS011;16639;51.488;0.152;2023-07-31T03:31:31;4.80;;;1.73;;
29730;SDS011;16639;51.488;0.152;2023-07-31T03:33:58;5.40;;;2.45;;
29730;SDS011;16639;51.488;0.152;2023-07-31T03:36:25;4.47;;;1.65;;
29730;SDS011;16639;51.488;0.152;2023-07-31T03:38:53;5.20;;;1.77;;
29730;SDS011;16639;51.488;0.152;2023-07-31T03:41:20;3.78;;;1.85;;
29730;SDS011;16639;51.488;0.152;2023-07-31T03:43:49;2.88;;;2.03;;
29730;SDS011;16639;51.488;0.152;2023-07-31T03:46:23;1.98;;;1.55;;
29730;SDS011;16639;51.488;0.152;2023-07-31T03:48:51;6.57;;;2.08;;
29730;SDS011;16639;51.488;0.152;2023-07-31T03:51:18;4.47;;;1.65;;
29730;SDS011;16639;51.488;0.152;2023-07-31T03:53:46;5.00;;;1.70;;
29730;SDS011;16639;51.488;0.152;2023-07-31T03:56:13;2.05;;;1.30;;
29730;SDS011;16639;51.488;0.152;2023-07-31T03:58:40;2.25;;;1.65;;
29730;SDS011;16639;51.488;0.152;2023-07-31T04:01:08;5.53;;;1.83;;
29730;SDS011;16639;51.488;0.152;2023-07-31T04:03:35;4.38;;;1.95;;
29730;SDS011;16639;51.488;0.152;2023-07-31T04:06:03;2.97;;;1.90;;
29730;SDS011;16639;51.488;0.152;2023-07-31T04:08:30;3.65;;;1.83;;
29730;SDS011;16639;51.488;0.152;2023-07-31T04:10:57;3.15;;;1.30;;
29730;SDS011;16639;51.488;0.152;2023-07-31T04:13:25;4.00;;;1.58;;
29730;SDS011;16639;51.488;0.152;2023-07-31T04:15:54;4.97;;;1.40;;
29730;SDS011;16639;51.488;0.152;2023-07-31T04:18:21;2.97;;;1.90;;
29730;SDS011;16639;51.488;0.152;2023-07-31T04:20:51;5.15;;;1.65;;
29730;SDS011;16639;51.488;0.152;2023-07-31T04:23:19;2.33;;;1.10;;
29730;SDS011;16639;51.488;0.152;2023-07-31T04:25:46;2.40;;;1.55;;
29730;SDS011;16639;51.488;0.152;2023-07-31T04:28:13;3.88;;;1.33;;
29730;SDS011;16639;51.488;0.152;2023-07-31T04:30:41;4.05;;;1.58;;
29730;SDS011;16639;51.488;0.152;2023-07-31T04:33:08;2.83;;;1.13;;
29730;SDS011;16639;51.488;0.152;2023-07-31T04:35:36;1.95;;;1.10;;
29730;SDS011;16639;51.488;0.152;2023-07-31T04:38:03;2.13;;;1.20;;
29730;SDS011;16639;51.488;0.152;2023-07-31T04:40:31;4.07;;;1.65;;
29730;SDS011;16639;51.488;0.152;2023-07-31T04:42:58;4.57;;;1.58;;
29730;SDS011;16639;51.488;0.152;2023-07-31T04:45:25;4.47;;;1.42;;
29730;SDS011;16639;51.488;0.152;2023-07-31T04:47:53;4.90;;;2.00;;
29730;SDS011;16639;51.488;0.152;2023-07-31T04:50:20;3.58;;;1.73;;
29730;SDS011;16639;51.488;0.152;2023-07-31T04:52:47;9.95;;;2.25;;
29730;SDS011;16639;51.488;0.152;2023-07-31T04:55:15;1.73;;;1.50;;
29730;SDS011;16639;51.488;0.152;2023-07-31T04:57:42;3.53;;;2.35;;
29730;SDS011;16639;51.488;0.152;2023-07-31T05:00:10;3.28;;;2.00;;
29730;SDS011;16639;51.488;0.152;2023-07-31T05:02:37;6.30;;;1.75;;
29730;SDS011;16639;51.488;0.152;2023-07-31T05:05:05;3.30;;;1.90;;
29730;SDS011;16639;51.488;0.152;2023-07-31T05:07:32;5.53;;;1.65;;
29730;SDS011;16639;51.488;0.152;2023-07-31T05:10:00;2.00;;;1.17;;
29730;SDS011;16639;51.488;0.152;2023-07-31T05:12:27;3.72;;;1.65;;
29730;SDS011;16639;51.488;0.152;2023-07-31T05:14:54;4.18;;;1.52;;
29730;SDS011;16639;51.488;0.152;2023-07-31T05:17:22;4.05;;;1.48;;
29730;SDS011;16639;51.488;0.152;2023-07-31T05:19:49;3.08;;;1.48;;
29730;SDS011;16639;51.488;0.152;2023-07-31T05:22:17;4.70;;;1.42;;
29730;SDS011;16639;51.488;0.152;2023-07-31T05:24:44;2.90;;;1.42;;
29730;SDS011;16639;51.488;0.152;2023-07-31T05:27:12;7.47;;;1.88;;
29730;SDS011;16639;51.488;0.152;2023-07-31T05:29:41;2.78;;;1.27;;
29730;SDS011;16639;51.488;0.152;2023-07-31T05:32:09;2.72;;;1.60;;
29730;SDS011;16639;51.488;0.152;2023-07-31T05:34:36;3.80;;;1.20;;
29730;SDS011;16639;51.488;0.152;2023-07-31T05:37:04;2.70;;;1.30;;
29730;SDS011;16639;51.488;0.152;2023-07-31T05:39:32;4.13;;;1.38;;
29730;SDS011;16639;51.488;0.152;2023-07-31T05:41:59;2.92;;;1.40;;
29730;SDS011;16639;51.488;0.152;2023-07-31T05:44:27;4.40;;;2.00;;
29730;SDS011;16639;51.488;0.152;2023-07-31T05:46:55;2.20;;;1.40;;
29730;SDS011;16639;51.488;0.152;2023-07-31T05:49:22;6.05;;;1.70;;
29730;SDS011;16639;51.488;0.152;2023-07-31T05:51:50;3.05;;;1.70;;
29730;SDS011;16639;51.488;0.152;2023-07-31T05:54:17;6.15;;;2.13;;
29730;SDS011;16639;51.488;0.152;2023-07-31T05:56:45;4.07;;;1.60;;
29730;SDS011;16639;51.488;0.152;2023-07-31T05:59:12;3.70;;;1.77;;
29730;SDS011;16639;51.488;0.152;2023-07-31T06:01:40;7.70;;;2.38;;
29730;SDS011;16639;51.488;0.152;2023-07-31T06:04:07;4.70;;;1.73;;
29730;SDS011;16639;51.488;0.152;2023-07-31T06:06:35;4.45;;;1.67;;
29730;SDS011;16639;51.488;0.152;2023-07-31T06:09:03;1.65;;;1.35;;
29730;SDS011;16639;51.488;0.152;2023-07-31T06:11:30;3.97;;;2.10;;
29730;SDS011;16639;51.488;0.152;2023-07-31T06:13:58;4.03;;;1.67;;
29730;SDS011;16639;51.488;0.152;2023-07-31T06:16:25;6.95;;;2.00;;
29730;SDS011;16639;51.488;0.152;2023-07-31T06:18:54;3.22;;;1.55;;
29730;SDS011;16639;51.488;0.152;2023-07-31T06:21:21;3.20;;;1.77;;
29730;SDS011;16639;51.488;0.152;2023-07-31T06:23:48;3.40;;;1.90;;
29730;SDS011;16639;51.488;0.152;2023-07-31T06:26:16;5.35;;;1.48;;
29730;SDS011;16639;51.488;0.152;2023-07-31T06:28:43;3.45;;;1.85;;
29730;SDS011;16639;51.488;0.152;2023-07-31T06:31:10;7.55;;;2.17;;
29730;SDS011;16639;51.488;0.152;2023-07-31T06:33:38;2.65;;;1.33;;
29730;SDS011;16639;51.488;0.152;2023-07-31T06:36:05;4.90;;;1.65;;
29730;SDS011;16639;51.488;0.152;2023-07-31T06:38:33;6.40;;;2.45;;
29730;SDS011;16639;51.488;0.152;2023-07-31T06:41:00;3.72;;;1.67;;
29730;SDS011;16639;51.488;0.152;2023-07-31T06:43:28;6.60;;;1.60;;
29730;SDS011;16639;51.488;0.152;2023-07-31T06:45:55;5.60;;;1.70;;
29730;SDS011;16639;51.488;0.152;2023-07-31T06:48:23;5.93;;;2.72;;
29730;SDS011;16639;51.488;0.152;2023-07-31T06:50:50;10.95;;;4.07;;
29730;SDS011;16639;51.488;0.152;2023-07-31T06:53:17;10.48;;;2.10;;
29730;SDS011;16639;51.488;0.152;2023-07-31T06:55:45;8.35;;;2.63;;
29730;SDS011;16639;51.488;0.152;2023-07-31T06:58:12;10.05;;;3.05;;
29730;SDS011;16639;51.488;0.152;2023-07-31T07:00:39;6.53;;;2.20;;
29730;SDS011;16639;51.488;0.152;2023-07-31T07:03:07;7.50;;;2.15;;
29730;SDS011;16639;51.488;0.152;2023-07-31T07:05:34;5.10;;;2.40;;
29730;SDS011;16639;51.488;0.152;2023-07-31T07:08:02;11.95;;;3.47;;
29730;SDS011;16639;51.488;0.152;2023-07-31T07:10:29;6.80;;;2.20;;
29730;SDS011;16639;51.488;0.152;2023-07-31T07:12:57;7.68;;;2.60;;
29730;SDS011;16639;51.488;0.152;2023-07-31T07:15:24;3.92;;;1.98;;
29730;SDS011;16639;51.488;0.152;2023-07-31T07:17:51;7.22;;;2.92;;
29730;SDS011;16639;51.488;0.152;2023-07-31T07:20:19;8.25;;;2.67;;
29730;SDS011;16639;51.488;0.152;2023-07-31T07:22:46;7.20;;;2.95;;
29730;SDS011;16639;51.488;0.152;2023-07-31T07:25:14;2.80;;;2.08;;
29730;SDS011;16639;51.488;0.152;2023-07-31T07:27:41;14.18;;;3.38;;
29730;SDS011;16639;51.488;0.152;2023-07-31T07:30:09;9.05;;;3.50;;
29730;SDS011;16639;51.488;0.152;2023-07-31T07:32:36;9.55;;;3.55;;
29730;SDS011;16639;51.488;0.152;2023-07-31T07:35:04;8.15;;;3.53;;
29730;SDS011;16639;51.488;0.152;2023-07-31T07:37:31;2.88;;;1.50;;
29730;SDS011;16639;51.488;0.152;2023-07-31T07:39:59;4.25;;;1.70;;
29730;SDS011;16639;51.488;0.152;2023-07-31T07:42:27;4.40;;;1.98;;
29730;SDS011;16639;51.488;0.152;2023-07-31T07:44:54;3.78;;;1.83;;
29730;SDS011;16639;51.488;0.152;2023-07-31T07:47:21;5.75;;;2.60;;
29730;SDS011;16639;51.488;0.152;2023-07-31T07:49:49;6.65;;;2.20;;
29730;SDS011;16639;51.488;0.152;2023-07-31T07:52:19;5.60;;;2.00;;
29730;SDS011;16639;51.488;0.152;2023-07-31T07:54:46;5.05;;;1.70;;
29730;SDS011;16639;51.488;0.152;2023-07-31T07:57:14;3.97;;;1.73;;
29730;SDS011;16639;51.488;0.152;2023-07-31T07:59:41;3.67;;;1.67;;
29730;SDS011;16639;51.488;0.152;2023-07-31T08:02:09;3.05;;;1.60;;
29730;SDS011;16639;51.488;0.152;2023-07-31T08:04:39;5.78;;;2.50;;
29730;SDS011;16639;51.488;0.152;2023-07-31T08:07:06;7.75;;;2.05;;
29730;SDS011;16639;51.488;0.152;2023-07-31T08:09:34;3.75;;;1.60;;
29730;SDS011;16639;51.488;0.152;2023-07-31T08:12:01;7.10;;;1.75;;
29730;SDS011;16639;51.488;0.152;2023-07-31T08:14:30;5.40;;;1.52;;
29730;SDS011;16639;51.488;0.152;2023-07-31T08:16:59;6.20;;;1.70;;
29730;SDS011;16639;51.488;0.152;2023-07-31T08:19:28;11.73;;;1.98;;
29730;SDS011;16639;51.488;0.152;2023-07-31T08:21:55;3.80;;;1.63;;
29730;SDS011;16639;51.488;0.152;2023-07-31T08:24:24;4.55;;;1.40;;
29730;SDS011;16639;51.488;0.152;2023-07-31T08:26:51;5.15;;;1.63;;
29730;SDS011;16639;51.488;0.152;2023-07-31T08:29:19;6.40;;;1.92;;
29730;SDS011;16639;51.488;0.152;2023-07-31T08:31:46;7.35;;;2.47;;
29730;SDS011;16639;51.488;0.152;2023-07-31T08:34:14;2.38;;;1.75;;
29730;SDS011;16639;51.488;0.152;2023-07-31T08:36:41;5.57;;;1.70;;
29730;SDS011;16639;51.488;0.152;2023-07-31T08:39:08;5.53;;;1.85;;
29730;SDS011;16639;51.488;0.152;2023-07-31T08:41:39;5.28;;;1.70;;
29730;SDS011;16639;51.488;0.152;2023-07-31T08:44:07;4.85;;;1.48;;
29730;SDS011;16639;51.488;0.152;2023-07-31T08:46:35;3.65;;;1.50;;
29730;SDS011;16639;51.488;0.152;2023-07-31T08:49:04;5.07;;;1.80;;
29730;SDS011;16639;51.488;0.152;2023-07-31T08:51:35;6.65;;;2.17;;
29730;SDS011;16639;51.488;0.152;2023-07-31T08:54:03;6.93;;;2.13;;
29730;SDS011;16639;51.488;0.152;2023-07-31T08:56:34;4.63;;;1.65;;
29730;SDS011;16639;51.488;0.152;2023-07-31T08:59:03;5.13;;;1.95;;
29730;SDS011;16639;51.488;0.152;2023-07-31T09:01:33;10.23;;;2.05;;
29730;SDS011;16639;51.488;0.152;2023-07-31T09:04:07;3.42;;;2.22;;
29730;SDS011;16639;51.488;0.152;2023-07-31T09:06:37;4.18;;;1.70;;
29730;SDS011;16639;51.488;0.152;2023-07-31T09:09:06;3.58;;;2.10;;
29730;SDS011;16639;51.488;0.152;2023-07-31T09:11:34;4.80;;;1.92;;
29730;SDS011;16639;51.488;0.152;2023-07-31T09:14:02;2.75;;;1.90;;
29730;SDS011;16639;51.488;0.152;2023-07-31T09:16:35;4.72;;;1.85;;
29730;SDS011;16639;51.488;0.152;2023-07-31T09:19:03;3.97;;;2.17;;
29730;SDS011;16639;51.488;0.152;2023-07-31T09:21:32;7.25;;;1.90;;
29730;SDS011;16639;51.488;0.152;2023-07-31T09:23:59;2.92;;;1.70;;
29730;SDS011;16639;51.488;0.152;2023-07-31T09:26:30;3.50;;;1.90;;
29730;SDS011;16639;51.488;0.152;2023-07-31T09:28:59;3.00;;;1.92;;
29730;SDS011;16639;51.488;0.152;2023-07-31T09:31:46;2.63;;;1.45;;
29730;SDS011;16639;51.488;0.152;2023-07-31T09:34:14;5.60;;;1.88;;
29730;SDS011;16639;51.488;0.152;2023-07-31T09:36:48;3.40;;;1.48;;
29730;SDS011;16639;51.488;0.152;2023-07-31T09:39:17;4.07;;;1.48;;
29730;SDS011;16639;51.488;0.152;2023-07-31T09:41:47;2.80;;;1.75;;
29730;SDS011;16639;51.488;0.152;2023-07-31T09:44:20;4.28;;;1.73;;
29730;SDS011;16639;51.488;0.152;2023-07-31T09:46:48;4.32;;;1.63;;
29730;SDS011;16639;51.488;0.152;2023-07-31T09:49:16;3.25;;;1.70;;
29730;SDS011;16639;51.488;0.152;2023-07-31T09:51:44;5.07;;;1.77;;
29730;SDS011;16639;51.488;0.152;2023-07-31T09:54:12;3.17;;;1.75;;
29730;SDS011;16639;51.488;0.152;2023-07-31T09:56:44;5.20;;;1.63;;
29730;SDS011;16639;51.488;0.152;2023-07-31T09:59:14;3.38;;;1.85;;
29730;SDS011;16639;51.488;0.152;2023-07-31T10:01:45;5.07;;;2.00;;
29730;SDS011;16639;51.488;0.152;2023-07-31T10:04:13;3.05;;;1.63;;
29730;SDS011;16639;51.488;0.152;2023-07-31T10:06:42;4.45;;;2.00;;
29730;SDS011;16639;51.488;0.152;2023-07-31T10:09:11;3.13;;;1.95;;
29730;SDS011;16639;51.488;0.152;2023-07-31T10:11:42;3.42;;;1.50;;
29730;SDS011;16639;51.488;0.152;2023-07-31T10:14:26;1.63;;;1.30;;
29730;SDS011;16639;51.488;0.152;2023-07-31T10:16:56;1.20;;;1.10;;
29730;SDS011;16639;51.488;0.152;2023-07-31T10:19:25;2.38;;;1.20;;
29730;SDS011;16639;51.488;0.152;2023-07-31T10:21:54;2.30;;;1.13;;
29730;SDS011;16639;51.488;0.152;2023-07-31T10:24:25;1.48;;;1.15;;
29730;SDS011;16639;51.488;0.152;2023-07-31T10:26:53;2.60;;;1.10;;
29730;SDS011;16639;51.488;0.152;2023-07-31T10:29:27;1.90;;;1.00;;
29730;SDS011;16639;51.488;0.152;2023-07-31T10:31:57;3.63;;;1.35;;
29730;SDS011;16639;51.488;0.152;2023-07-31T10:34:26;4.10;;;1.00;;
29730;SDS011;16639;51.488;0.152;2023-07-31T10:40:09;2.75;;;1.05;;
29730;SDS011;16639;51.488;0.152;2023-07-31T10:42:46;7.60;;;1.75;;
29730;SDS011;16639;51.488;0.152;2023-07-31T10:48:05;1.98;;;1.20;;
29730;SDS011;16639;51.488;0.152;2023-07-31T10:50:38;1.50;;;1.17;;
29730;SDS011;16639;51.488;0.152;2023-07-31T10:53:25;2.40;;;1.58;;
29730;SDS011;16639;51.488;0.152;2023-07-31T10:56:01;2.47;;;1.20;;
29730;SDS011;16639;51.488;0.152;2023-07-31T10:58:30;4.95;;;1.65;;
29730;SDS011;16639;51.488;0.152;2023-07-31T11:00:59;3.53;;;1.40;;
29730;SDS011;16639;51.488;0.152;2023-07-31T11:03:45;4.47;;;1.90;;
29730;SDS011;16639;51.488;0.152;2023-07-31T11:06:16;3.45;;;1.40;;
29730;SDS011;16639;51.488;0.152;2023-07-31T11:08:49;4.43;;;1.80;;
29730;SDS011;16639;51.488;0.152;2023-07-31T11:11:18;2.45;;;1.65;;
29730;SDS011;16639;51.488;0.152;2023-07-31T11:16:18;2.35;;;1.70;;
29730;SDS011;16639;51.488;0.152;2023-07-31T11:18:47;2.50;;;1.40;;
29730;SDS011;16639;51.488;0.152;2023-07-31T11:21:16;2.78;;;1.67;;
29730;SDS011;16639;51.488;0.152;2023-07-31T11:23:46;4.60;;;1.67;;
29730;SDS011;16639;51.488;0.152;2023-07-31T11:26:14;4.53;;;1.85;;
29730;SDS011;16639;51.488;0.152;2023-07-31T11:28:48;2.85;;;1.73;;
29730;SDS011;16639;51.488;0.152;2023-07-31T11:31:17;8.07;;;1.80;;
29730;SDS011;16639;51.488;0.152;2023-07-31T11:33:45;3.45;;;1.92;;
29730;SDS011;16639;51.488;0.152;2023-07-31T11:36:16;6.40;;;1.55;;
29730;SDS011;16639;51.488;0.152;2023-07-31T11:38:45;1.50;;;1.40;;
29730;SDS011;16639;51.488;0.152;2023-07-31T11:41:16;3.85;;;1.63;;
29730;SDS011;16639;51.488;0.152;2023-07-31T11:43:45;3.85;;;1.48;;
29730;SDS011;16639;51.488;0.152;2023-07-31T11:46:14;2.13;;;1.48;;
29730;SDS011;16639;51.488;0.152;2023-07-31T11:48:42;28.50;;;8.45;;
29730;SDS011;16639;51.488;0.152;2023-07-31T11:51:10;22.17;;;12.90;;
29730;SDS011;16639;51.488;0.152;2023-07-31T11:53:51;6.85;;;3.25;;
29730;SDS011;16639;51.488;0.152;2023-07-31T11:56:20;3.28;;;1.77;;
29730;SDS011;16639;51.488;0.152;2023-07-31T11:58:57;8.73;;;2.85;;
29730;SDS011;16639;51.488;0.152;2023-07-31T12:01:29;5.53;;;2.15;;
29730;SDS011;16639;51.488;0.152;2023-07-31T12:03:57;8.45;;;3.13;;
29730;SDS011;16639;51.488;0.152;2023-07-31T12:06:32;8.35;;;3.28;;
29730;SDS011;16639;51.488;0.152;2023-07-31T12:09:07;5.25;;;2.35;;
29730;SDS011;16639;51.488;0.152;2023-07-31T12:11:44;8.02;;;2.83;;
29730;SDS011;16639;51.488;0.152;2023-07-31T12:14:22;4.80;;;2.60;;
29730;SDS011;16639;51.488;0.152;2023-07-31T12:16:55;6.10;;;2.92;;
29730;SDS011;16639;51.488;0.152;2023-07-31T12:19:26;4.55;;;1.92;;
29730;SDS011;16639;51.488;0.152;2023-07-31T12:21:58;5.03;;;2.40;;
29730;SDS011;16639;51.488;0.152;2023-07-31T12:24:27;5.35;;;2.50;;
29730;SDS011;16639;51.488;0.152;2023-07-31T12:26:54;11.13;;;3.25;;
29730;SDS011;16639;51.488;0.152;2023-07-31T12:29:22;8.02;;;3.13;;
29730;SDS011;16639;51.488;0.152;2023-07-31T12:31:49;4.53;;;2.30;;
29730;SDS011;16639;51.488;0.152;2023-07-31T12:34:20;6.68;;;2.72;;
29730;SDS011;16639;51.488;0.152;2023-07-31T12:36:48;8.75;;;2.42;;
29730;SDS011;16639;51.488;0.152;2023-07-31T12:39:16;6.43;;;2.38;;
29730;SDS011;16639;51.488;0.152;2023-07-31T12:41:43;7.95;;;2.88;;
29730;SDS011;16639;51.488;0.152;2023-07-31T12:44:10;6.15;;;2.95;;
29730;SDS011;16639;51.488;0.152;2023-07-31T12:46:38;8.40;;;2.67;;
29730;SDS011;16639;51.488;0.152;2023-07-31T12:49:06;5.20;;;2.88;;
29730;SDS011;16639;51.488;0.152;2023-07-31T12:51:33;4.95;;;2.40;;
29730;SDS011;16639;51.488;0.152;2023-07-31T12:54:01;10.70;;;2.78;;
29730;SDS011;16639;51.488;0.152;2023-07-31T12:56:28;4.60;;;2.90;;
29730;SDS011;16639;51.488;0.152;2023-07-31T12:58:56;7.38;;;2.42;;
29730;SDS011;16639;51.488;0.152;2023-07-31T13:01:23;5.88;;;3.00;;
29730;SDS011;16639;51.488;0.152;2023-07-31T13:03:51;6.38;;;2.50;;
29730;SDS011;16639;51.488;0.152;2023-07-31T13:06:18;6.43;;;2.63;;
29730;SDS011;16639;51.488;0.152;2023-07-31T13:08:46;6.75;;;2.95;;
29730;SDS011;16639;51.488;0.152;2023-07-31T13:11:14;8.18;;;4.03;;
29730;SDS011;16639;51.488;0.152;2023-07-31T13:13:41;6.10;;;2.90;;
29730;SDS011;16639;51.488;0.152;2023-07-31T13:16:08;6.07;;;2.85;;
29730;SDS011;16639;51.488;0.152;2023-07-31T13:18:36;7.28;;;3.22;;
29730;SDS011;16639;51.488;0.152;2023-07-31T13:21:03;7.40;;;3.65;;
29730;SDS011;16639;51.488;0.152;2023-07-31T13:23:31;6.00;;;3.42;;
29730;SDS011;16639;51.488;0.152;2023-07-31T13:25:58;10.60;;;3.33;;
29730;SDS011;16639;51.488;0.152;2023-07-31T13:28:26;7.70;;;3.25;;
29730;SDS011;16639;51.488;0.152;2023-07-31T13:30:53;6.07;;;3.38;;
29730;SDS011;16639;51.488;0.152;2023-07-31T13:33:20;12.23;;;4.05;;
29730;SDS011;16639;51.488;0.152;2023-07-31T13:36:03;9.65;;;3.30;;
29730;SDS011;16639;51.488;0.152;2023-07-31T13:38:30;10.13;;;3.95;;
29730;SDS011;16639;51.488;0.152;2023-07-31T13:40:58;13.00;;;5.03;;
29730;SDS011;16639;51.488;0.152;2023-07-31T13:43:26;10.43;;;4.53;;
29730;SDS011;16639;51.488;0.152;2023-07-31T13:45:53;13.23;;;5.00;;
29730;SDS011;16639;51.488;0.152;2023-07-31T13:48:21;12.50;;;4.50;;
29730;SDS011;16639;51.488;0.152;2023-07-31T13:50:48;8.63;;;4.72;;
29730;SDS011;16639;51.488;0.152;2023-07-31T13:53:16;14.45;;;4.68;;
29730;SDS011;16639;51.488;0.152;2023-07-31T13:55:43;9.73;;;4.55;;
29730;SDS011;16639;51.488;0.152;2023-07-31T13:58:12;16.08;;;5.47;;
29730;SDS011;16639;51.488;0.152;2023-07-31T14:00:39;11.55;;;5.63;;
29730;SDS011;16639;51.488;0.152;2023-07-31T14:03:07;11.80;;;5.20;;
29730;SDS011;16639;51.488;0.152;2023-07-31T14:05:34;11.35;;;5.07;;
29730;SDS011;16639;51.488;0.152;2023-07-31T14:08:02;16.05;;;6.15;;
29730;SDS011;16639;51.488;0.152;2023-07-31T14:10:30;16.70;;;5.53;;
29730;SDS011;16639;51.488;0.152;2023-07-31T14:12:59;13.88;;;4.93;;
29730;SDS011;16639;51.488;0.152;2023-07-31T14:15:27;16.65;;;5.22;;
29730;SDS011;16639;51.488;0.152;2023-07-31T14:17:55;11.80;;;5.90;;
29730;SDS011;16639;51.488;0.152;2023-07-31T14:20:27;11.75;;;5.10;;
29730;SDS011;16639;51.488;0.152;2023-07-31T14:22:55;15.73;;;5.05;;
29730;SDS011;16639;51.488;0.152;2023-07-31T14:25:22;14.55;;;5.20;;
29730;SDS011;16639;51.488;0.152;2023-07-31T14:27:50;10.68;;;5.15;;
29730;SDS011;16639;51.488;0.152;2023-07-31T14:30:17;8.85;;;4.93;;
29730;SDS011;16639;51.488;0.152;2023-07-31T14:32:45;14.68;;;6.90;;
29730;SDS011;16639;51.488;0.152;2023-07-31T14:35:13;12.95;;;5.90;;
29730;SDS011;16639;51.488;0.152;2023-07-31T14:37:41;10.82;;;5.03;;
29730;SDS011;16639;51.488;0.152;2023-07-31T14:40:10;18.00;;;6.53;;
29730;SDS011;16639;51.488;0.152;2023-07-31T14:42:39;12.13;;;5.88;;
29730;SDS011;16639;51.488;0.152;2023-07-31T14:45:07;16.35;;;4.40;;
29730;SDS011;16639;51.488;0.152;2023-07-31T14:47:35;12.73;;;6.15;;
29730;SDS011;16639;51.488;0.152;2023-07-31T14:50:03;16.38;;;6.63;;
29730;SDS011;16639;51.488;0.152;2023-07-31T14:52:31;13.23;;;6.18;;
29730;SDS011;16639;51.488;0.152;2023-07-31T14:54:59;12.00;;;5.50;;
29730;SDS011;16639;51.488;0.152;2023-07-31T14:57:26;8.70;;;5.50;;
29730;SDS011;16639;51.488;0.152;2023-07-31T14:59:54;15.18;;;5.32;;
29730;SDS011;16639;51.488;0.152;2023-07-31T15:02:21;10.68;;;5.28;;
29730;SDS011;16639;51.488;0.152;2023-07-31T15:04:49;15.75;;;5.70;;
29730;SDS011;16639;51.488;0.152;2023-07-31T15:07:16;14.30;;;5.85;;
29730;SDS011;16639;51.488;0.152;2023-07-31T15:09:44;13.63;;;5.18;;